This is the latest recevied weather packets stored in our database for station/object KA0WKG. If no packets are shown the sender has not sent any weather packets the latest 10 day(s).
| Time | Temp. | Humidity | Pressure | Rain* | Wind** | Luminosity | Snow |
|---|---|---|---|---|---|---|---|
| 1777183208 | 2.22° C | 96% | 1014.7 hPa | 0 mm | - | - | - |
| 1777178708 | 2.22° C | 94% | 1015.3 hPa | 0 mm | - | - | - |
| 1777176009 | 2.78° C | 92% | 1015.4 hPa | 0 mm | - | - | - |
| 1777175408 | 3.33° C | 91% | 1015.3 hPa | 0 mm | - | - | - |
| 1777174208 | 3.33° C | 90% | 1015 hPa | 0 mm | - | - | - |
| 1777172707 | 3.33° C | 89% | 1014.3 hPa | 0 mm | - | - | - |
| 1777168508 | 3.33° C | 88% | 1013.6 hPa | 0 mm | - | - | - |
| 1777167008 | 3.33° C | 88% | 1013.1 hPa | 0 mm | - | - | - |
| 1777164907 | 3.89° C | 87% | 1013.2 hPa | 0 mm | - | - | - |
| 1777162807 | 3.89° C | 87% | 1012.6 hPa | 0 mm | - | - | - |
| 1777161607 | 4.44° C | 87% | 1012.2 hPa | 0 mm | - | - | - |
| 1777160108 | 5° C | 85% | 1012.3 hPa | 0 mm | - | - | - |
| 1777159207 | 5° C | 85% | 1012.2 hPa | 0 mm | - | - | - |
| 1777158007 | 5° C | 85% | 1012.3 hPa | 0 mm | - | - | - |
| 1777155906 | 5.56° C | 85% | 1012.3 hPa | 0 mm | - | - | - |
| 1777153807 | 5° C | 87% | 1012.2 hPa | 0 mm | - | - | - |
| 1777152907 | 5° C | 88% | 1012.2 hPa | 0 mm | - | - | - |
| 1777152307 | 5° C | 88% | 1012.2 hPa | 0 mm | - | - | - |
| 1777150807 | 5° C | 88% | 1012.7 hPa | 0 mm | - | - | - |
| 1777150506 | 5° C | 87% | 1012.7 hPa | 0 mm | - | - | - |
| 1777149306 | 5° C | 87% | 1012.9 hPa | 0 mm | - | - | - |
| 1777146907 | 5° C | 88% | 1013.1 hPa | 0 mm | - | - | - |
| 1777143006 | 3.33° C | 92% | 1013.5 hPa | 0 mm | - | - | - |
| 1777141506 | 3.33° C | 93% | 1013.8 hPa | 0 mm | - | - | - |
| 1777140606 | 3.33° C | 94% | 1014.2 hPa | 0 mm | - | - | - |
* Rain latest hour (hover to see other rain measurements)
** Current wind speed in m/s (hover to see current wind gust speed)